createdAt,value
2022-12-23T00:01:08.928Z,96712.91
2022-12-23T00:03:35.628Z,96716.75
2022-12-23T00:06:11.899Z,96718.63
2022-12-23T00:08:38.562Z,96719.34
2022-12-23T00:11:06.569Z,96707.66
2022-12-23T00:13:33.268Z,96704.25
2022-12-23T00:16:03.326Z,96703.25
2022-12-23T00:18:30.080Z,96715.75
2022-12-23T00:21:09.836Z,96707.31
2022-12-23T00:23:37.708Z,96707.94
2022-12-23T00:26:04.350Z,96696.19
2022-12-23T00:28:31.038Z,96696.88
2022-12-23T00:31:05.072Z,96688.41
2022-12-23T00:33:42.046Z,96689.94
2022-12-23T00:36:15.416Z,96691.00
2022-12-23T00:38:42.071Z,96679.34
2022-12-23T00:41:16.331Z,96684.84
2022-12-23T00:43:42.972Z,96688.72
2022-12-23T00:46:09.671Z,96693.84
2022-12-23T00:48:36.386Z,96688.25
2022-12-23T00:51:03.131Z,96682.38
2022-12-23T00:53:29.914Z,96693.16
2022-12-23T00:55:56.572Z,96687.69
2022-12-23T00:58:23.231Z,96686.41
2022-12-23T01:00:49.892Z,96690.38
2022-12-23T01:03:16.623Z,96679.94
2022-12-23T01:05:43.336Z,96683.59
2022-12-23T01:08:11.582Z,96688.69
2022-12-23T01:10:39.016Z,96684.59
2022-12-23T01:13:05.655Z,96696.91
2022-12-23T01:15:32.329Z,96697.81
2022-12-23T01:17:58.937Z,96695.81
2022-12-23T01:20:25.547Z,96700.94
2022-12-23T01:22:52.180Z,96696.19
2022-12-23T01:25:18.866Z,96698.53
2022-12-23T01:27:45.490Z,96696.19
2022-12-23T01:30:12.267Z,96696.66
2022-12-23T01:32:38.879Z,96701.22
2022-12-23T01:35:05.745Z,96706.72
2022-12-23T01:37:32.396Z,96701.00
2022-12-23T01:39:59.071Z,96708.72
2022-12-23T01:42:25.714Z,96710.38
2022-12-23T01:44:59.765Z,96707.22
2022-12-23T01:47:34.987Z,96701.13
2022-12-23T01:50:37.112Z,96707.94
2022-12-23T01:53:09.331Z,96712.13
2022-12-23T01:55:39.057Z,96706.72
2022-12-23T01:58:12.106Z,96713.50
2022-12-23T02:00:39.199Z,96706.38
2022-12-23T02:03:05.992Z,96699.16
2022-12-23T02:05:32.753Z,96705.25
2022-12-23T02:07:59.479Z,96711.06
2022-12-23T02:10:28.359Z,96703.31
2022-12-23T02:13:00.321Z,96695.06
2022-12-23T02:15:45.019Z,96687.78
2022-12-23T02:18:20.664Z,96694.28
2022-12-23T02:21:07.374Z,96680.84
2022-12-23T02:23:36.859Z,96683.91
2022-12-23T02:26:09.750Z,96684.91
2022-12-23T02:29:03.902Z,96689.84
2022-12-23T02:31:43.058Z,96686.69
2022-12-23T02:34:19.715Z,96681.44
2022-12-23T02:37:13.598Z,96684.94
2022-12-23T02:39:54.041Z,96688.66
2022-12-23T02:42:25.808Z,96695.94
2022-12-23T02:45:11.086Z,96699.44
2022-12-23T02:47:47.580Z,96696.31
2022-12-23T02:50:19.783Z,96696.78
2022-12-23T02:52:46.833Z,96684.59
2022-12-23T02:55:15.238Z,96686.81
2022-12-23T02:57:44.072Z,96691.72
2022-12-23T03:00:11.148Z,96694.19
2022-12-23T03:02:39.431Z,96698.16
2022-12-23T03:05:06.840Z,96687.88
2022-12-23T03:07:41.511Z,96687.44
2022-12-23T03:10:28.649Z,96713.16
2022-12-23T03:13:09.089Z,96707.78
2022-12-23T03:15:59.434Z,96695.75
2022-12-23T03:18:38.029Z,96696.22
2022-12-23T03:21:24.892Z,96699.91
2022-12-23T03:23:55.792Z,96675.84
2022-12-23T03:26:27.621Z,96679.63
2022-12-23T03:28:55.748Z,96674.69
2022-12-23T03:31:24.728Z,96675.09
2022-12-23T03:34:25.200Z,96666.63
2022-12-23T03:36:52.671Z,96678.50
2022-12-23T03:39:20.958Z,96678.69
2022-12-23T03:41:57.856Z,96673.53
2022-12-23T03:44:32.960Z,96670.03
2022-12-23T03:47:07.609Z,96676.25
2022-12-23T03:49:37.217Z,96666.41
2022-12-23T03:52:18.891Z,96665.81
2022-12-23T03:54:53.544Z,96666.44
2022-12-23T03:57:20.721Z,96664.31
2022-12-23T03:59:47.639Z,96664.78
2022-12-23T04:02:35.541Z,96670.63
2022-12-23T04:05:20.497Z,96670.16
2022-12-23T04:08:10.461Z,96667.47
2022-12-23T04:10:37.127Z,96675.44
2022-12-23T04:13:03.757Z,96666.19
2022-12-23T04:15:30.393Z,96666.66
2022-12-23T04:17:57.104Z,96666.53
2022-12-23T04:20:24.032Z,96666.53
2022-12-23T04:22:50.630Z,96663.38
2022-12-23T04:25:17.463Z,96667.47
2022-12-23T04:27:44.117Z,96670.75
2022-12-23T04:30:11.462Z,96664.56
2022-12-23T04:32:38.102Z,96664.78
2022-12-23T04:35:05.216Z,96664.31
2022-12-23T04:37:31.806Z,96661.88
2022-12-23T04:39:58.402Z,96665.59
2022-12-23T04:42:24.980Z,96665.72
2022-12-23T04:44:51.581Z,96669.69
2022-12-23T04:47:18.422Z,96680.59
2022-12-23T04:49:45.028Z,96673.34
2022-12-23T04:52:11.657Z,96677.91
2022-12-23T04:54:45.478Z,96683.28
2022-12-23T04:57:12.832Z,96681.19
2022-12-23T04:59:39.493Z,96677.31
2022-12-23T05:02:06.404Z,96679.66
2022-12-23T05:04:33.300Z,96682.59
2022-12-23T05:06:59.946Z,96682.00
2022-12-23T05:09:26.592Z,96680.72
2022-12-23T05:11:53.264Z,96679.78
2022-12-23T05:14:19.852Z,96681.75
2022-12-23T05:16:46.490Z,96682.69
2022-12-23T05:19:13.121Z,96681.16
2022-12-23T05:21:39.713Z,96685.03
2022-12-23T05:24:06.476Z,96689.94
2022-12-23T05:26:33.061Z,96687.25
2022-12-23T05:28:59.649Z,96686.69
2022-12-23T05:31:26.253Z,96692.06
2022-12-23T05:33:53.036Z,96684.91
2022-12-23T05:36:19.772Z,96691.56
2022-12-23T05:38:46.386Z,96682.34
2022-12-23T05:41:13.023Z,96685.03
2022-12-23T05:43:39.642Z,96683.16
2022-12-23T05:46:06.368Z,96667.00
2022-12-23T05:48:33.109Z,96664.06
2022-12-23T05:50:59.732Z,96665.03
2022-12-23T05:53:26.341Z,96664.53
2022-12-23T05:55:53.002Z,96649.47
2022-12-23T05:58:19.616Z,96648.38
2022-12-23T06:00:46.213Z,96653.44
2022-12-23T06:03:12.932Z,96648.50
2022-12-23T06:05:40.404Z,96659.16
2022-12-23T06:08:07.012Z,96661.13
2022-12-23T06:10:33.662Z,96652.84
2022-12-23T06:13:00.283Z,96663.63
2022-12-23T06:15:26.948Z,96660.22
2022-12-23T06:17:53.609Z,96675.22
2022-12-23T06:20:21.112Z,96665.47
2022-12-23T06:22:47.984Z,96667.72
2022-12-23T06:25:14.830Z,96665.13
2022-12-23T06:27:41.519Z,96659.88
2022-12-23T06:30:08.743Z,96661.94
2022-12-23T06:32:38.506Z,96658.78
2022-12-23T06:35:06.766Z,96658.88
2022-12-23T06:37:33.419Z,96649.44
2022-12-23T06:40:00.117Z,96664.97
2022-12-23T06:42:26.760Z,96657.38
2022-12-23T06:44:53.414Z,96673.59
2022-12-23T06:47:20.187Z,96679.34
2022-12-23T06:49:46.826Z,96696.72
2022-12-23T06:52:13.470Z,96694.28
2022-12-23T06:54:40.076Z,96694.28
2022-12-23T06:57:06.710Z,96688.09
2022-12-23T06:59:33.372Z,96698.75
2022-12-23T07:02:00.167Z,96702.03
2022-12-23T07:04:27.028Z,96704.72
2022-12-23T07:06:53.653Z,96704.97
2022-12-23T07:09:20.290Z,96691.41
2022-12-23T07:11:46.897Z,96685.53
2022-12-23T07:14:13.562Z,96673.84
2022-12-23T07:16:40.207Z,96685.88
2022-12-23T07:19:07.983Z,96684.03
2022-12-23T07:21:34.619Z,96691.06
2022-12-23T07:24:01.269Z,96697.09
2022-12-23T07:26:27.884Z,96698.66
2022-12-23T07:28:54.490Z,96716.16
2022-12-23T07:31:21.256Z,96712.22
2022-12-23T07:33:47.936Z,96708.38
2022-12-23T07:36:14.540Z,96720.31
2022-12-23T07:38:41.158Z,96716.75
2022-12-23T07:41:07.790Z,96732.88
2022-12-23T07:43:34.431Z,96729.06
2022-12-23T07:46:06.738Z,96721.56
2022-12-23T07:48:33.411Z,96709.78
2022-12-23T07:51:01.320Z,96705.31
2022-12-23T07:53:28.027Z,96707.22
2022-12-23T07:55:56.665Z,96706.38
2022-12-23T07:58:23.748Z,96713.88
2022-12-23T08:00:50.376Z,96705.56
2022-12-23T08:03:17.169Z,96709.22
2022-12-23T08:05:43.971Z,96714.47
2022-12-23T08:08:10.586Z,96706.84
2022-12-23T08:10:41.397Z,96700.88
2022-12-23T08:13:11.116Z,96709.53
2022-12-23T08:15:37.758Z,96709.09
2022-12-23T08:18:04.368Z,96708.03
2022-12-23T08:20:30.976Z,96703.72
2022-12-23T08:22:57.611Z,96703.47
2022-12-23T08:25:24.305Z,96698.91
2022-12-23T08:27:51.160Z,96702.94
2022-12-23T08:30:18.964Z,96709.25
2022-12-23T08:32:46.818Z,96704.56
2022-12-23T08:35:13.413Z,96711.25
2022-12-23T08:37:40.064Z,96709.84
2022-12-23T08:40:07.250Z,96711.94
2022-12-23T08:42:33.928Z,96714.63
2022-12-23T08:45:00.546Z,96712.53
2022-12-23T08:47:27.238Z,96729.28
2022-12-23T08:49:53.900Z,96728.59
2022-12-23T08:52:20.546Z,96742.63
2022-12-23T08:54:47.228Z,96734.31
2022-12-23T08:57:13.967Z,96735.13
2022-12-23T08:59:40.611Z,96733.97
2022-12-23T09:02:09.825Z,96733.72
2022-12-23T09:04:36.694Z,96738.50
2022-12-23T09:07:03.390Z,96747.06
2022-12-23T09:09:30.064Z,96738.97
2022-12-23T09:11:56.662Z,96745.16
2022-12-23T09:14:23.373Z,96748.91
2022-12-23T09:16:50.854Z,96741.53
2022-12-23T09:19:17.775Z,96755.34
2022-12-23T09:21:44.413Z,96752.66
2022-12-23T09:24:11.059Z,96753.34
2022-12-23T09:26:37.788Z,96755.34
2022-12-23T09:29:04.441Z,96754.88
2022-12-23T09:31:36.502Z,96762.50
2022-12-23T09:34:04.141Z,96756.88
2022-12-23T09:36:30.726Z,96763.09
2022-12-23T09:38:58.035Z,96773.16
2022-12-23T09:41:43.999Z,96771.78
2022-12-23T09:44:29.087Z,96769.88
2022-12-23T09:46:58.200Z,96768.47
2022-12-23T09:49:24.932Z,96767.91
2022-12-23T09:51:52.370Z,96764.72
2022-12-23T09:54:38.112Z,96762.63
2022-12-23T09:57:32.656Z,96752.09
2022-12-23T10:00:17.114Z,96754.69
2022-12-23T10:03:01.067Z,96752.69
2022-12-23T10:05:46.532Z,96754.44
2022-12-23T10:08:33.162Z,96751.75
2022-12-23T10:11:11.284Z,96747.66
2022-12-23T10:13:39.587Z,96743.06
2022-12-23T10:16:18.174Z,96743.56
2022-12-23T10:18:59.875Z,96752.81
2022-12-23T10:21:29.818Z,96742.00
2022-12-23T10:23:56.389Z,96732.53
2022-12-23T10:26:44.361Z,96737.31
2022-12-23T10:29:19.385Z,96746.34
2022-12-23T10:32:17.239Z,96733.97
2022-12-23T10:35:02.247Z,96746.06
2022-12-23T10:37:36.974Z,96748.06
2022-12-23T10:40:28.371Z,96741.03
2022-12-23T10:43:22.018Z,96738.22
2022-12-23T10:45:49.858Z,96741.25
2022-12-23T10:48:32.915Z,96739.47
2022-12-23T10:51:17.709Z,96746.41
2022-12-23T10:53:51.623Z,96742.16
2022-12-23T10:56:18.453Z,96739.34
2022-12-23T10:58:45.850Z,96735.69
2022-12-23T11:01:21.750Z,96749.06
2022-12-23T11:04:05.758Z,96744.50
2022-12-23T11:06:37.129Z,96746.22
2022-12-23T11:09:04.502Z,96738.38
2022-12-23T11:11:58.554Z,96746.16
2022-12-23T11:14:33.994Z,96734.38
2022-12-23T11:17:00.671Z,96736.94
2022-12-23T11:19:27.348Z,96738.72
2022-12-23T11:21:55.239Z,96743.91
2022-12-23T11:24:22.025Z,96733.75
2022-12-23T11:27:02.658Z,96742.16
2022-12-23T11:29:34.403Z,96741.84
2022-12-23T11:32:02.265Z,96744.69
2022-12-23T11:34:31.113Z,96749.56
2022-12-23T11:37:01.856Z,96745.13
2022-12-23T11:39:33.389Z,96750.66
2022-12-23T11:42:15.952Z,96748.47
2022-12-23T11:44:43.120Z,96749.53
2022-12-23T11:47:33.507Z,96745.53
2022-12-23T11:50:03.988Z,96748.94
2022-12-23T11:52:31.280Z,96742.38
2022-12-23T11:54:59.487Z,96739.34
2022-12-23T11:57:38.135Z,96739.34
2022-12-23T12:00:06.216Z,96738.06
2022-12-23T12:02:44.785Z,96738.88
2022-12-23T12:05:18.713Z,96737.47
2022-12-23T12:07:45.336Z,96740.16
2022-12-23T12:10:27.348Z,96731.16
2022-12-23T12:12:58.981Z,96735.59
2022-12-23T12:15:35.652Z,96726.00
2022-12-23T12:18:02.296Z,96727.06
2022-12-23T12:20:31.555Z,96725.28
2022-12-23T12:23:02.163Z,96724.91
2022-12-23T12:25:43.549Z,96728.78
2022-12-23T12:28:22.562Z,96731.38
2022-12-23T12:30:52.913Z,96731.13
2022-12-23T12:33:23.361Z,96734.19
2022-12-23T12:36:04.926Z,96733.09
2022-12-23T12:38:32.016Z,96734.00
2022-12-23T12:41:02.706Z,96731.22
2022-12-23T12:43:31.008Z,96725.72
2022-12-23T12:46:06.535Z,96727.50
2022-12-23T12:48:45.198Z,96727.00
2022-12-23T12:51:31.791Z,96726.56
2022-12-23T12:54:26.191Z,96738.88
2022-12-23T12:56:57.927Z,96732.19
2022-12-23T12:59:37.488Z,96720.44
2022-12-23T13:02:09.990Z,96725.53
2022-12-23T13:04:59.593Z,96720.50
2022-12-23T13:07:38.767Z,96714.94
2022-12-23T13:10:34.266Z,96697.47
2022-12-23T13:13:10.246Z,96692.19
2022-12-23T13:15:51.969Z,96702.75
2022-12-23T13:18:43.888Z,96696.97
2022-12-23T13:21:17.724Z,96699.66
2022-12-23T13:24:03.904Z,96698.25
2022-12-23T13:26:44.486Z,96694.41
2022-12-23T13:29:35.917Z,96697.00
2022-12-23T13:32:47.490Z,96701.44
2022-12-23T13:35:32.618Z,96709.75
2022-12-23T13:38:18.917Z,96705.53
2022-12-23T13:41:11.887Z,96705.09
2022-12-23T13:43:49.178Z,96709.66
2022-12-23T13:46:25.559Z,96714.31
2022-12-23T13:49:13.811Z,96717.69
2022-12-23T13:52:20.777Z,96715.69
2022-12-23T13:55:08.976Z,96714.22
2022-12-23T13:57:59.931Z,96724.13
2022-12-23T14:00:29.451Z,96719.19
2022-12-23T14:02:58.970Z,96706.94
2022-12-23T14:05:32.607Z,96713.72
2022-12-23T14:08:00.257Z,96703.00
2022-12-23T14:10:26.912Z,96705.63
2022-12-23T14:12:59.463Z,96704.00
2022-12-23T14:15:47.448Z,96704.44
2022-12-23T14:18:26.904Z,96704.69
2022-12-23T14:21:09.447Z,96700.84
2022-12-23T14:24:00.839Z,96708.81
2022-12-23T14:27:08.869Z,96715.16
2022-12-23T14:29:50.768Z,96710.69
2022-12-23T14:32:41.715Z,96712.78
2022-12-23T14:35:19.202Z,96725.59
2022-12-23T14:38:04.649Z,96713.06
2022-12-23T14:40:36.847Z,96719.28
2022-12-23T14:43:23.310Z,96697.81
2022-12-23T14:46:03.513Z,96700.63
2022-12-23T14:48:37.174Z,96703.75
2022-12-23T14:51:24.850Z,96700.13
2022-12-23T14:53:51.369Z,96704.47
2022-12-23T14:56:22.182Z,96718.53
2022-12-23T14:58:51.503Z,96715.25
2022-12-23T15:01:34.264Z,96709.72
2022-12-23T15:04:08.301Z,96707.28
2022-12-23T15:06:38.317Z,96711.72
2022-12-23T15:09:05.712Z,96704.72
2022-12-23T15:11:33.766Z,96706.69
2022-12-23T15:14:03.063Z,96710.13
2022-12-23T15:16:34.802Z,96702.03
2022-12-23T15:19:12.580Z,96704.81
2022-12-23T15:21:39.201Z,96711.63
2022-12-23T15:24:06.085Z,96718.53
2022-12-23T15:26:32.739Z,96722.41
2022-12-23T15:28:59.767Z,96726.03
2022-12-23T15:31:38.356Z,96734.34
2022-12-23T15:34:13.271Z,96731.19
2022-12-23T15:36:43.917Z,96729.88
2022-12-23T15:39:18.622Z,96735.38
2022-12-23T15:41:45.795Z,96730.50
2022-12-23T15:44:23.208Z,96735.38
2022-12-23T15:46:50.722Z,96740.44
2022-12-23T15:49:18.083Z,96745.25
2022-12-23T15:52:07.178Z,96725.66
2022-12-23T15:54:35.182Z,96744.31
2022-12-23T15:57:02.092Z,96744.91
2022-12-23T15:59:37.807Z,96729.25
2022-12-23T16:02:58.319Z,96734.38
2022-12-23T16:05:06.517Z,96727.59
2022-12-23T16:07:38.048Z,96736.59
2022-12-23T16:10:21.687Z,96741.53
2022-12-23T16:12:51.438Z,96754.38
2022-12-23T16:15:27.721Z,96743.84
2022-12-23T16:18:18.946Z,96743.84
2022-12-23T16:20:46.783Z,96748.28
2022-12-23T16:23:13.429Z,96742.66
2022-12-23T16:25:42.142Z,96747.22
2022-12-23T16:28:19.148Z,96742.66
2022-12-23T16:30:45.770Z,96743.72
2022-12-23T16:33:30.590Z,96740.44
2022-12-23T16:35:57.207Z,96742.41
2022-12-23T16:38:25.018Z,96738.69
2022-12-23T16:40:55.572Z,96746.72
2022-12-23T16:43:23.257Z,96738.13
2022-12-23T16:45:51.402Z,96741.22
2022-12-23T16:48:40.137Z,96734.19
2022-12-23T16:51:16.106Z,96729.75
2022-12-23T16:53:42.768Z,96745.47
2022-12-23T16:56:16.245Z,96759.44
2022-12-23T16:58:43.103Z,96757.44
2022-12-23T17:01:14.298Z,96748.38
2022-12-23T17:03:41.062Z,96744.53
2022-12-23T17:06:12.552Z,96725.56
2022-12-23T17:08:39.487Z,96721.00
2022-12-23T17:11:06.480Z,96728.38
2022-12-23T17:13:33.170Z,96730.97
2022-12-23T17:15:59.915Z,96740.09
2022-12-23T17:18:26.607Z,96740.25
2022-12-23T17:20:53.304Z,96757.34
2022-12-23T17:23:27.865Z,96759.84
2022-12-23T17:25:54.522Z,96744.78
2022-12-23T17:28:21.675Z,96741.78
2022-12-23T17:30:50.965Z,96753.94
2022-12-23T17:33:18.129Z,96745.28
2022-12-23T17:35:44.776Z,96744.34
2022-12-23T17:38:14.672Z,96752.66
2022-12-23T17:40:41.352Z,96764.50
2022-12-23T17:43:16.948Z,96767.88
2022-12-23T17:45:43.912Z,96772.22
2022-12-23T17:48:16.299Z,96757.56
2022-12-23T17:50:47.551Z,96762.97
2022-12-23T17:53:17.834Z,96768.81
2022-12-23T17:55:44.452Z,96763.69
2022-12-23T17:58:11.102Z,96769.66
2022-12-23T18:00:38.078Z,96780.41
2022-12-23T18:03:07.009Z,96812.53
2022-12-23T18:05:34.823Z,96823.44
2022-12-23T18:08:01.714Z,96822.47
2022-12-23T18:10:38.193Z,96823.41
2022-12-23T18:13:06.646Z,96829.69
2022-12-23T18:15:41.147Z,96824.06
2022-12-23T18:18:24.412Z,96825.59
2022-12-23T18:20:56.404Z,96829.34
2022-12-23T18:23:25.171Z,96828.31
2022-12-23T18:25:51.864Z,96827.16
2022-12-23T18:28:18.466Z,96832.41
2022-12-23T18:30:45.198Z,96830.22
2022-12-23T18:33:12.350Z,96845.88
2022-12-23T18:35:42.850Z,96861.13
2022-12-23T18:38:09.522Z,96861.72
2022-12-23T18:40:36.330Z,96859.50
2022-12-23T18:43:02.935Z,96863.97
2022-12-23T18:45:31.275Z,96851.53
2022-12-23T18:47:58.126Z,96859.28
2022-12-23T18:50:25.313Z,96868.78
2022-12-23T18:52:51.955Z,96859.16
2022-12-23T18:55:18.641Z,96858.09
2022-12-23T18:57:45.741Z,96865.25
2022-12-23T19:00:14.350Z,96868.78
2022-12-23T19:02:41.066Z,96865.00
2022-12-23T19:05:08.068Z,96870.97
2022-12-23T19:07:34.728Z,96860.09
2022-12-23T19:10:01.417Z,96858.34
2022-12-23T19:12:28.051Z,96836.78
2022-12-23T19:14:54.663Z,96831.97
2022-12-23T19:17:21.268Z,96822.41
2022-12-23T19:19:47.855Z,96820.50
2022-12-23T19:22:14.499Z,96806.22
2022-12-23T19:24:58.290Z,96818.03
2022-12-23T19:27:27.663Z,96815.00
2022-12-23T19:29:54.326Z,96810.34
2022-12-23T19:32:21.025Z,96799.78
2022-12-23T19:34:47.688Z,96797.91
2022-12-23T19:37:14.288Z,96813.25
2022-12-23T19:39:40.945Z,96841.84
2022-12-23T19:42:08.043Z,96859.03
2022-12-23T19:44:34.740Z,96858.94
2022-12-23T19:47:01.705Z,96844.41
2022-12-23T19:49:28.358Z,96816.41
2022-12-23T19:51:55.019Z,96807.75
2022-12-23T19:54:21.618Z,96800.97
2022-12-23T19:56:49.972Z,96796.97
2022-12-23T19:59:16.741Z,96795.19
2022-12-23T20:01:43.429Z,96815.81
2022-12-23T20:04:10.129Z,96814.88
2022-12-23T20:06:36.891Z,96800.56
2022-12-23T20:09:03.710Z,96789.91
2022-12-23T20:11:32.865Z,96789.94
2022-12-23T20:13:59.925Z,96784.56
2022-12-23T20:16:26.994Z,96789.38
2022-12-23T20:18:54.047Z,96796.25
2022-12-23T20:21:20.648Z,96803.03
2022-12-23T20:23:47.392Z,96803.16
2022-12-23T20:26:14.169Z,96808.66
2022-12-23T20:28:40.843Z,96809.13
2022-12-23T20:31:09.719Z,96795.06
2022-12-23T20:33:36.866Z,96788.88
2022-12-23T20:36:07.588Z,96790.16
2022-12-23T20:38:35.035Z,96801.63
2022-12-23T20:41:01.664Z,96799.78
2022-12-23T20:43:28.414Z,96786.78
2022-12-23T20:45:55.051Z,96779.41
2022-12-23T20:48:21.769Z,96796.28
2022-12-23T20:50:48.675Z,96791.81
2022-12-23T20:53:15.320Z,96800.34
2022-12-23T20:55:41.971Z,96782.56
2022-12-23T20:58:08.585Z,96783.13
2022-12-23T21:00:35.219Z,96792.63
2022-12-23T21:03:08.411Z,96810.53
2022-12-23T21:05:36.929Z,96805.63
2022-12-23T21:08:03.542Z,96792.38
2022-12-23T21:10:30.190Z,96792.88
2022-12-23T21:12:56.793Z,96793.44
2022-12-23T21:15:23.389Z,96798.94
2022-12-23T21:17:49.967Z,96800.59
2022-12-23T21:20:16.604Z,96793.78
2022-12-23T21:22:43.212Z,96791.91
2022-12-23T21:25:10.361Z,96789.59
2022-12-23T21:27:36.999Z,96785.50
2022-12-23T21:30:03.871Z,96784.78
2022-12-23T21:32:30.493Z,96795.31
2022-12-23T21:34:57.128Z,96810.19
2022-12-23T21:37:23.751Z,96812.78
2022-12-23T21:39:50.353Z,96804.81
2022-12-23T21:42:16.997Z,96798.59
2022-12-23T21:44:43.599Z,96811.25
2022-12-23T21:47:10.257Z,96814.41
2022-12-23T21:49:36.854Z,96808.34
2022-12-23T21:52:03.614Z,96815.81
2022-12-23T21:54:30.224Z,96820.16
2022-12-23T21:56:56.855Z,96824.25
2022-12-23T21:59:23.505Z,96813.72
2022-12-23T22:01:50.240Z,96801.88
2022-12-23T22:04:16.911Z,96793.44
2022-12-23T22:06:43.937Z,96793.44
2022-12-23T22:09:15.165Z,96785.09
2022-12-23T22:11:41.999Z,96773.16
2022-12-23T22:14:09.999Z,96785.69
2022-12-23T22:16:36.736Z,96792.72
2022-12-23T22:19:04.072Z,96778.41
2022-12-23T22:21:31.182Z,96780.31
2022-12-23T22:23:57.867Z,96799.03
2022-12-23T22:26:26.483Z,96795.97
2022-12-23T22:28:54.617Z,96783.59
2022-12-23T22:31:27.599Z,96784.25
2022-12-23T22:33:54.288Z,96791.91
2022-12-23T22:36:20.975Z,96769.06
2022-12-23T22:38:55.112Z,96763.09
2022-12-23T22:41:21.773Z,96778.44
2022-12-23T22:43:48.386Z,96775.28
2022-12-23T22:46:15.047Z,96779.72
2022-12-23T22:48:41.756Z,96778.53
2022-12-23T22:51:13.347Z,96787.09
2022-12-23T22:53:39.985Z,96781.00
2022-12-23T22:56:07.159Z,96791.91
2022-12-23T22:58:33.793Z,96809.47
2022-12-23T23:01:00.564Z,96808.06
2022-12-23T23:03:27.210Z,96811.00
2022-12-23T23:06:00.607Z,96801.19
2022-12-23T23:08:27.912Z,96783.56
2022-12-23T23:10:56.185Z,96807.47
2022-12-23T23:13:23.073Z,96807.13
2022-12-23T23:15:49.710Z,96812.88
2022-12-23T23:18:16.440Z,96816.63
2022-12-23T23:20:43.052Z,96809.16
2022-12-23T23:23:09.677Z,96828.34
2022-12-23T23:25:36.280Z,96834.13
2022-12-23T23:28:02.872Z,96835.75
2022-12-23T23:30:29.593Z,96849.47
2022-12-23T23:32:56.242Z,96854.16
2022-12-23T23:35:22.893Z,96860.31
2022-12-23T23:37:49.512Z,96871.34
2022-12-23T23:40:16.147Z,96868.41
2022-12-23T23:42:42.797Z,96863.38
2022-12-23T23:45:09.784Z,96867.13
2022-12-23T23:47:36.424Z,96859.88
2022-12-23T23:50:03.866Z,96870.53
2022-12-23T23:52:30.588Z,96877.69
2022-12-23T23:54:57.239Z,96884.81
2022-12-23T23:57:23.876Z,96884.69
2022-12-23T23:59:50.474Z,96888.69
